Time;durP1;ratioP1;P1;durP2;ratioP2;P2;SDS_P1;SDS_P2;PMS_P1;PMS_P2;Temp;Humidity;BMP_temperature;BMP_pressure;BME280_temperature;BME280_humidity;BME280_pressure;Samples;Min_cycle;Max_cycle;Signal;HPM_P1;HPM_P2
2023/03/27 00:01:50;;;;;;;7.07;1.65;;;;;;;3.39;86.12;101443.28;4912708;29;20115;-63
2023/03/27 00:04:17;;;;;;;8.10;1.60;;;;;;;3.37;86.51;101444.91;4913223;29;20032;-64
2023/03/27 00:06:44;;;;;;;8.00;1.80;;;;;;;3.36;86.49;101446.59;4914207;29;20035;-63
2023/03/27 00:09:10;;;;;;;7.93;1.98;;;;;;;3.37;87.26;101450.94;4921755;29;20042;-63
2023/03/27 00:11:35;;;;;;;7.70;2.00;;;;;;;3.39;87.20;101453.59;4917069;29;20036;-63
2023/03/27 00:14:00;;;;;;;11.52;1.77;;;;;;;3.39;87.01;101461.31;4920348;29;20091;-63
2023/03/27 00:16:26;;;;;;;5.55;2.00;;;;;;;3.41;87.97;101472.63;4919512;29;20063;-63
2023/03/27 00:18:53;;;;;;;7.68;1.88;;;;;;;3.43;88.24;101465.88;4918177;29;20055;-63
2023/03/27 00:21:19;;;;;;;9.00;1.80;;;;;;;3.45;88.13;101478.06;4914677;29;20024;-63
2023/03/27 00:23:45;;;;;;;9.38;1.80;;;;;;;3.46;88.12;101479.84;4918625;29;20032;-64
2023/03/27 00:26:11;;;;;;;8.60;2.00;;;;;;;3.47;88.40;101488.47;4915930;29;20059;-64
2023/03/27 00:28:36;;;;;;;6.65;1.83;;;;;;;3.47;88.57;101493.63;4914666;29;20093;-64
2023/03/27 00:31:02;;;;;;;6.88;1.65;;;;;;;3.48;88.43;101496.28;4919785;29;20073;-63
2023/03/27 00:33:27;;;;;;;5.22;1.75;;;;;;;3.47;88.07;101494.50;4916584;29;20167;-63
2023/03/27 00:35:53;;;;;;;7.50;1.77;;;;;;;3.46;87.98;101491.81;4922663;29;20031;-64
2023/03/27 00:38:18;;;;;;;6.50;2.00;;;;;;;3.40;88.02;101492.34;4921552;29;20028;-64
2023/03/27 00:40:45;;;;;;;5.40;1.60;;;;;;;3.38;88.05;101499.09;4925164;29;20035;-63
2023/03/27 00:43:19;;;;;;;10.68;1.92;;;;;;;3.34;88.02;101497.09;4921315;29;20035;-63
2023/03/27 00:45:46;;;;;;;9.70;2.55;;;;;;;3.33;87.98;101499.59;4920764;29;20040;-63
2023/03/27 00:48:13;;;;;;;7.78;2.10;;;;;;;3.29;87.67;101501.97;4932831;29;20059;-63
2023/03/27 00:50:41;;;;;;;5.53;1.50;;;;;;;3.26;87.81;101506.06;4917415;29;20023;-64
2023/03/27 00:53:16;;;;;;;6.28;1.60;;;;;;;3.23;88.04;101503.25;4912032;29;20035;-64
2023/03/27 00:55:45;;;;;;;8.70;1.83;;;;;;;3.24;87.97;101516.22;4923526;29;20024;-64
2023/03/27 00:58:18;;;;;;;5.10;1.40;;;;;;;3.23;88.30;101519.63;4926212;29;20098;-63
2023/03/27 01:00:43;;;;;;;6.55;1.60;;;;;;;3.22;88.19;101524.66;4919933;29;20028;-63
2023/03/27 01:03:10;;;;;;;7.05;2.05;;;;;;;3.21;88.62;101526.34;4916220;29;20405;-64
2023/03/27 01:05:36;;;;;;;8.05;2.13;;;;;;;3.22;88.86;101532.41;4924468;29;20122;-63
2023/03/27 01:08:02;;;;;;;7.20;1.40;;;;;;;3.20;88.79;101529.72;4919563;29;20043;-64
2023/03/27 01:10:44;;;;;;;6.20;1.60;;;;;;;3.22;89.71;101538.44;4916888;29;20032;-63
2023/03/27 01:13:32;;;;;;;7.85;1.80;;;;;;;3.26;90.03;101543.00;4903494;29;20047;-63
2023/03/27 01:16:14;;;;;;;9.00;2.07;;;;;;;3.29;89.80;101542.31;4894433;29;20075;-63
2023/03/27 01:18:58;;;;;;;5.65;1.63;;;;;;;3.31;89.61;101544.16;4899367;29;20521;-63
2023/03/27 01:21:53;;;;;;;6.78;1.90;;;;;;;3.36;89.71;101556.44;4915069;29;20055;-63
2023/03/27 01:24:41;;;;;;;7.03;1.38;;;;;;;3.33;90.05;101557.13;4919297;29;20027;-64
2023/03/27 01:27:17;;;;;;;7.05;1.48;;;;;;;3.33;90.68;101562.28;4915455;29;20051;-63
2023/03/27 01:30:08;;;;;;;6.85;1.30;;;;;;;3.36;90.78;101562.50;4902592;29;20449;-64
2023/03/27 01:32:52;;;;;;;5.07;1.52;;;;;;;3.40;90.89;101555.84;4906036;29;20119;-63
2023/03/27 01:35:26;;;;;;;8.27;1.50;;;;;;;3.43;90.71;101556.03;4916212;29;20020;-63
2023/03/27 01:37:55;;;;;;;6.35;1.80;;;;;;;3.49;91.32;101569.34;4921563;29;20122;-63
2023/03/27 01:40:45;;;;;;;5.25;1.95;;;;;;;3.53;91.24;101563.56;4919401;29;20039;-63
2023/03/27 01:43:16;;;;;;;6.05;1.65;;;;;;;3.56;90.99;101560.28;4919518;29;20111;-64
2023/03/27 01:45:50;;;;;;;7.50;1.48;;;;;;;3.55;89.81;101568.81;4923309;29;20035;-63
2023/03/27 01:48:25;;;;;;;4.55;1.42;;;;;;;3.53;90.50;101578.13;4897407;29;20024;-63
2023/03/27 01:51:00;;;;;;;6.05;1.63;;;;;;;3.51;90.67;101572.88;4917089;29;20080;-63
2023/03/27 01:53:32;;;;;;;6.18;1.42;;;;;;;3.47;90.30;101570.91;4924442;29;20059;-63
2023/03/27 01:56:04;;;;;;;7.22;1.60;;;;;;;3.41;90.01;101575.69;4924510;29;20183;-64
2023/03/27 01:58:41;;;;;;;4.93;1.80;;;;;;;3.38;90.53;101580.63;4912886;29;20028;-63
2023/03/27 02:01:08;;;;;;;7.35;1.73;;;;;;;3.36;90.85;101583.13;4908027;29;20063;-64
2023/03/27 02:03:42;;;;;;;10.70;2.00;;;;;;;3.34;91.04;101573.50;4899063;29;20024;-64
2023/03/27 02:06:20;;;;;;;4.93;2.08;;;;;;;3.33;90.85;101574.28;4913351;29;20032;-63
2023/03/27 02:08:56;;;;;;;6.90;1.98;;;;;;;3.33;91.13;101582.88;4917454;29;20470;-63
2023/03/27 02:11:26;;;;;;;7.30;2.25;;;;;;;3.31;90.86;101584.50;4913035;29;20111;-63
2023/03/27 02:13:53;;;;;;;;;;;;;;;3.38;90.66;101596.09;4921185;29;20031;-64
2023/03/27 02:16:23;;;;;;;7.22;2.53;;;;;;;3.32;90.95;101599.16;4917647;29;19915;-63
2023/03/27 02:18:55;;;;;;;6.68;1.85;;;;;;;3.28;90.81;101603.19;4898540;29;20514;-63
2023/03/27 02:21:22;;;;;;;7.15;2.00;;;;;;;3.23;90.86;101603.69;4918283;29;20032;-63
2023/03/27 02:23:47;;;;;;;5.30;1.63;;;;;;;3.20;91.17;101614.72;4918695;29;20028;-63
2023/03/27 02:26:13;;;;;;;7.82;2.00;;;;;;;3.17;90.68;101619.63;4924223;29;20028;-63
2023/03/27 02:29:03;;;;;;;7.50;2.10;;;;;;;3.13;91.00;101620.25;4916807;29;20095;-63
2023/03/27 02:31:39;;;;;;;5.72;2.25;;;;;;;3.04;90.68;101610.22;4922499;29;20039;-63
2023/03/27 02:34:20;;;;;;;6.00;2.00;;;;;;;2.99;90.60;101627.03;4900542;29;20039;-64
2023/03/27 02:37:02;;;;;;;8.85;2.08;;;;;;;2.97;90.70;101626.06;4922368;29;20032;-63
2023/03/27 02:39:32;;;;;;;8.35;2.20;;;;;;;2.92;90.80;101627.41;4925428;29;20028;-63
2023/03/27 02:42:04;;;;;;;6.10;1.73;;;;;;;2.90;90.62;101631.56;4917018;29;20023;-63
2023/03/27 02:45:02;;;;;;;7.45;2.08;;;;;;;2.88;90.66;101634.06;4920315;29;20086;-63
2023/03/27 02:47:35;;;;;;;4.82;1.75;;;;;;;2.83;90.30;101632.84;4926775;29;20035;-63
2023/03/27 02:50:08;;;;;;;6.93;2.03;;;;;;;2.81;90.38;101641.22;4917753;29;20091;-63
2023/03/27 02:52:44;;;;;;;6.65;2.22;;;;;;;2.76;90.21;101644.38;4918242;29;20040;-63
2023/03/27 02:55:33;;;;;;;6.72;1.98;;;;;;;2.71;90.32;101650.00;4927224;29;20035;-64
2023/03/27 02:58:11;;;;;;;8.30;1.98;;;;;;;2.65;90.63;101647.94;4926242;29;20364;-63
2023/03/27 03:00:40;;;;;;;6.40;1.98;;;;;;;2.59;90.42;101643.25;4915054;29;20038;-63
2023/03/27 03:03:30;;;;;;;8.02;2.28;;;;;;;2.57;90.74;101643.94;4916617;29;20068;-63
2023/03/27 03:05:57;;;;;;;8.18;2.45;;;;;;;2.55;91.27;101653.19;4923638;29;20103;-63
2023/03/27 03:08:23;;;;;;;9.07;2.13;;;;;;;2.51;91.88;101658.94;4922412;29;20032;-63
2023/03/27 03:10:48;;;;;;;7.88;2.08;;;;;;;2.47;92.32;101660.41;4924508;29;20046;-63
2023/03/27 03:13:15;;;;;;;6.85;2.00;;;;;;;2.47;92.33;101662.97;4920206;29;20146;-63
2023/03/27 03:15:40;;;;;;;5.32;1.88;;;;;;;2.49;92.17;101673.38;4918260;29;20432;-63
2023/03/27 03:18:06;;;;;;;6.00;2.00;;;;;;;2.46;92.26;101678.31;4935452;29;20031;-63
2023/03/27 03:20:33;;;;;;;8.77;2.15;;;;;;;2.44;92.64;101679.06;4916447;29;20064;-64
2023/03/27 03:22:59;;;;;;;6.75;2.17;;;;;;;2.45;92.31;101682.56;4919941;29;20380;-63
2023/03/27 03:25:25;;;;;;;8.23;2.50;;;;;;;2.44;92.41;101688.47;4914935;29;20039;-63
2023/03/27 03:27:56;;;;;;;9.05;2.00;;;;;;;2.44;92.52;101681.66;4915352;29;20447;-64
2023/03/27 03:30:27;;;;;;;6.45;2.22;;;;;;;2.45;92.06;101692.84;4899311;29;20067;-64
2023/03/27 03:32:53;;;;;;;10.48;2.00;;;;;;;2.46;92.02;101699.75;4928828;29;20115;-63
2023/03/27 03:35:21;;;;;;;8.88;1.90;;;;;;;2.44;91.96;101694.50;4921241;29;20235;-63
2023/03/27 03:37:48;;;;;;;7.50;2.10;;;;;;;2.43;91.93;101702.13;4934109;29;20027;-63
2023/03/27 03:40:13;;;;;;;6.68;2.10;;;;;;;2.42;91.89;101700.34;4929332;29;20034;-63
2023/03/27 03:42:49;;;;;;;6.38;1.60;;;;;;;2.41;92.27;101714.00;4922225;29;20031;-63
2023/03/27 03:45:16;;;;;;;7.18;1.67;;;;;;;2.39;92.10;101712.97;4919107;29;20054;-63
2023/03/27 03:47:42;;;;;;;6.18;1.92;;;;;;;2.39;91.93;101723.25;4904822;29;20027;-64
2023/03/27 03:50:08;;;;;;;6.22;1.77;;;;;;;2.38;92.21;101721.50;4920124;29;20056;-63
2023/03/27 03:52:34;;;;;;;9.40;1.75;;;;;;;2.38;92.37;101724.06;4913290;29;20040;-63
2023/03/27 03:54:59;;;;;;;7.22;1.88;;;;;;;2.41;92.28;101724.28;4921080;29;20032;-63
2023/03/27 03:57:24;;;;;;;8.93;2.67;;;;;;;2.43;92.76;101725.28;4923052;29;20028;-63
2023/03/27 03:59:50;;;;;;;5.55;1.60;;;;;;;2.44;92.87;101734.78;4913818;29;20034;-63
2023/03/27 04:02:27;;;;;;;9.30;2.08;;;;;;;2.46;93.10;101737.47;4918973;29;20031;-63
2023/03/27 04:04:53;;;;;;;8.60;2.10;;;;;;;2.48;92.61;101734.22;4913454;29;20040;-63
2023/03/27 04:07:20;;;;;;;7.57;1.80;;;;;;;2.51;92.57;101737.00;4923681;29;20051;-63
2023/03/27 04:09:46;;;;;;;6.22;1.80;;;;;;;2.53;92.16;101748.28;4911592;29;20878;-63
2023/03/27 04:12:11;;;;;;;5.93;1.98;;;;;;;2.54;91.91;101744.06;4919057;29;20414;-63
2023/03/27 04:14:37;;;;;;;6.00;1.67;;;;;;;2.52;92.00;101746.50;4913077;29;20050;-63
2023/03/27 04:17:02;;;;;;;6.85;1.88;;;;;;;2.49;91.95;101756.59;4915643;29;20048;-64
2023/03/27 04:19:27;;;;;;;5.25;1.60;;;;;;;2.47;91.82;101758.16;4911304;29;20115;-63
2023/03/27 04:21:55;;;;;;;5.47;1.52;;;;;;;2.46;91.98;101756.34;4918639;29;20482;-63
2023/03/27 04:24:22;;;;;;;7.13;1.90;;;;;;;2.44;91.85;101763.06;4911251;29;20047;-63
2023/03/27 04:26:48;;;;;;;7.22;1.88;;;;;;;2.40;92.30;101761.97;4917117;29;20028;-63
2023/03/27 04:29:13;;;;;;;5.93;1.85;;;;;;;2.40;92.48;101777.41;4900313;29;20098;-63
2023/03/27 04:31:39;;;;;;;6.85;2.00;;;;;;;2.38;92.16;101778.97;4914938;29;20036;-63
2023/03/27 04:34:04;;;;;;;6.50;1.77;;;;;;;2.35;92.14;101781.31;4912395;29;20024;-63
2023/03/27 04:36:29;;;;;;;8.18;2.15;;;;;;;2.31;92.18;101788.72;4917003;29;20067;-72
2023/03/27 04:38:55;;;;;;;5.90;1.83;;;;;;;2.26;92.33;101788.38;4914677;29;20087;-72
2023/03/27 04:41:20;;;;;;;6.63;2.10;;;;;;;2.21;91.96;101794.84;4922639;29;20032;-71
2023/03/27 04:43:45;;;;;;;5.25;1.70;;;;;;;2.14;91.68;101806.34;4913884;29;22300;-71
2023/03/27 04:46:10;;;;;;;5.22;1.70;;;;;;;2.07;92.35;101807.59;4913876;29;20091;-71
2023/03/27 04:48:37;;;;;;;6.38;1.73;;;;;;;2.04;92.07;101812.53;4924595;29;20451;-72
2023/03/27 04:51:04;;;;;;;4.57;1.75;;;;;;;1.99;92.77;101815.53;4919497;29;20091;-70
2023/03/27 04:53:31;;;;;;;7.00;2.20;;;;;;;1.98;92.63;101816.31;4920614;29;20031;-71
2023/03/27 04:55:56;;;;;;;8.13;2.10;;;;;;;1.98;92.94;101816.31;4911825;29;20160;-71
2023/03/27 04:58:24;;;;;;;5.95;1.90;;;;;;;2.00;93.21;101813.06;4915363;29;20569;-71
2023/03/27 05:00:54;;;;;;;7.75;1.83;;;;;;;2.00;93.09;101819.88;4911992;29;20046;-71
2023/03/27 05:03:20;;;;;;;7.43;1.90;;;;;;;1.99;93.10;101818.97;4916320;29;20090;-71
2023/03/27 05:05:49;;;;;;;6.00;1.80;;;;;;;2.02;93.43;101829.50;4899002;29;20035;-71
2023/03/27 05:08:14;;;;;;;7.50;2.10;;;;;;;2.06;93.76;101826.38;4920311;29;20541;-71
2023/03/27 05:10:40;;;;;;;6.60;1.70;;;;;;;2.08;94.14;101829.94;4914979;29;20036;-71
2023/03/27 05:13:06;;;;;;;6.20;1.92;;;;;;;2.09;93.66;101828.28;4911660;29;20032;-71
2023/03/27 05:15:32;;;;;;;5.03;2.00;;;;;;;2.08;93.87;101840.22;4913832;29;20031;-72
2023/03/27 05:17:59;;;;;;;6.05;1.88;;;;;;;2.10;94.44;101840.38;4909458;29;20035;-71
2023/03/27 05:20:25;;;;;;;7.80;1.70;;;;;;;2.11;94.77;101848.97;4925156;29;20036;-71
2023/03/27 05:22:55;;;;;;;5.40;1.92;;;;;;;2.13;94.97;101847.38;4927966;29;20083;-71
2023/03/27 05:25:21;;;;;;;5.95;2.10;;;;;;;2.14;95.11;101851.75;4910874;29;20500;-71
2023/03/27 05:27:48;;;;;;;7.40;1.90;;;;;;;2.15;94.36;101864.72;4925080;29;20032;-72
2023/03/27 05:30:15;;;;;;;7.68;1.90;;;;;;;2.16;95.10;101863.03;4909602;29;20034;-72
2023/03/27 05:32:47;;;;;;;6.43;1.80;;;;;;;2.17;95.06;101867.41;4924710;29;20031;-71
2023/03/27 05:35:16;;;;;;;6.72;2.30;;;;;;;2.16;94.87;101869.09;4924341;29;20023;-71
2023/03/27 05:37:46;;;;;;;;;;;;;;;2.23;94.64;101870.41;4912759;29;20039;-72
2023/03/27 05:40:14;;;;;;;;;;;;;;;2.26;93.87;101868.09;4925297;29;20393;-71
2023/03/27 05:42:44;;;;;;;4.43;1.50;;;;;;;2.26;94.58;101868.09;4924785;29;19930;-72
2023/03/27 05:45:10;;;;;;;4.95;1.73;;;;;;;2.26;94.42;101865.53;4925183;29;20047;-72
2023/03/27 05:47:46;;;;;;;7.13;1.55;;;;;;;2.28;95.01;101879.38;4905659;29;20032;-72
2023/03/27 05:50:13;;;;;;;7.32;1.75;;;;;;;2.30;95.15;101879.50;4916146;29;20032;-72
2023/03/27 05:52:39;;;;;;;5.57;1.95;;;;;;;2.33;95.58;101892.56;4911966;29;20032;-72
2023/03/27 05:55:05;;;;;;;7.10;2.30;;;;;;;2.35;95.24;101893.59;4917224;29;20030;-71
2023/03/27 05:57:30;;;;;;;8.48;2.35;;;;;;;2.36;95.85;101895.34;4920063;29;20032;-71
2023/03/27 05:59:56;;;;;;;7.38;2.00;;;;;;;2.35;95.76;101893.59;4919842;29;20064;-72
2023/03/27 06:02:21;;;;;;;7.50;2.30;;;;;;;2.33;95.69;101895.13;4916846;29;20027;-71
2023/03/27 06:04:47;;;;;;;6.10;2.10;;;;;;;2.32;95.87;101909.69;4921709;29;20032;-71
2023/03/27 06:07:13;;;;;;;7.43;1.75;;;;;;;2.34;96.35;101909.78;4915715;29;20039;-71
2023/03/27 06:09:39;;;;;;;6.07;1.70;;;;;;;2.39;97.01;101926.44;4925513;29;20024;-72
2023/03/27 06:12:04;;;;;;;6.07;2.30;;;;;;;2.42;97.44;101931.84;4922635;29;20047;-72
2023/03/27 06:14:30;;;;;;;7.55;2.55;;;;;;;2.43;97.43;101937.09;4923266;29;20032;-71
2023/03/27 06:16:55;;;;;;;6.55;2.75;;;;;;;2.44;97.24;101943.13;4918478;29;20158;-72
2023/03/27 06:19:23;;;;;;;7.93;2.28;;;;;;;2.42;97.57;101949.84;4929796;29;20075;-71
2023/03/27 06:21:48;;;;;;;4.20;1.58;;;;;;;2.40;96.93;101941.09;4925548;29;20080;-71
2023/03/27 06:24:14;;;;;;;5.68;1.50;;;;;;;2.37;96.83;101938.31;4922022;29;20430;-71
2023/03/27 06:26:39;;;;;;;4.82;1.80;;;;;;;2.35;96.98;101935.63;4917291;29;20040;-71
2023/03/27 06:29:05;;;;;;;5.40;1.90;;;;;;;2.35;97.47;101938.19;4917325;29;20035;-71
2023/03/27 06:31:30;;;;;;;4.05;1.70;;;;;;;2.38;97.84;101935.84;4915977;29;20051;-71
2023/03/27 06:33:56;;;;;;;4.75;1.75;;;;;;;2.43;97.76;101941.34;4924941;29;20024;-71
2023/03/27 06:36:23;;;;;;;7.72;2.28;;;;;;;2.48;97.51;101945.16;4899795;29;20028;-71
2023/03/27 06:38:49;;;;;;;6.78;3.17;;;;;;;2.50;96.83;101948.72;4927546;29;20159;-71
2023/03/27 06:41:14;;;;;;;7.10;3.78;;;;;;;2.51;96.23;101944.50;4932646;29;20102;-71
2023/03/27 06:43:39;;;;;;;8.15;3.63;;;;;;;2.48;96.25;101950.31;4916198;29;20055;-71
2023/03/27 06:46:05;;;;;;;9.65;3.75;;;;;;;2.44;96.56;101953.41;4918420;29;20110;-71
2023/03/27 06:48:30;;;;;;;6.97;3.83;;;;;;;2.44;96.78;101958.56;4926287;29;20070;-71
2023/03/27 06:50:56;;;;;;;6.90;3.75;;;;;;;2.48;96.53;101955.44;4921413;29;20016;-71
2023/03/27 06:53:22;;;;;;;7.10;3.80;;;;;;;2.55;97.21;101969.63;4917723;29;20058;-71
2023/03/27 06:55:48;;;;;;;8.73;3.63;;;;;;;2.61;97.07;101975.25;4933601;29;20055;-71
2023/03/27 06:58:15;;;;;;;6.45;2.60;;;;;;;2.64;96.07;101972.91;4924160;29;20067;-71
2023/03/27 07:00:41;;;;;;;5.82;2.95;;;;;;;2.64;96.83;101972.03;4892125;29;20114;-71
2023/03/27 07:03:08;;;;;;;6.07;2.80;;;;;;;2.67;96.92;101979.97;4918020;29;20123;-71
2023/03/27 07:05:36;;;;;;;6.70;2.70;;;;;;;2.69;96.97;101975.81;4931464;29;20040;-71
2023/03/27 07:08:08;;;;;;;7.93;2.53;;;;;;;2.76;97.05;101996.97;4935730;29;20506;-71
2023/03/27 07:10:34;;;;;;;6.50;2.75;;;;;;;2.82;96.92;101993.94;4919879;29;20036;-71
2023/03/27 07:12:59;;;;;;;8.13;2.65;;;;;;;2.92;97.30;101992.94;4911546;29;20043;-71
2023/03/27 07:15:25;;;;;;;6.88;2.50;;;;;;;3.03;96.35;101993.75;4914481;29;20083;-71
2023/03/27 07:17:55;;;;;;;6.32;2.40;;;;;;;3.14;95.90;101997.97;4914153;29;20486;-71
2023/03/27 07:20:21;;;;;;;5.97;2.00;;;;;;;3.26;95.62;101995.41;4912857;29;20499;-71
2023/03/27 07:22:46;;;;;;;7.70;2.45;;;;;;;3.36;95.14;101997.84;4915727;29;20028;-71
2023/03/27 07:25:11;;;;;;;5.95;2.33;;;;;;;3.46;94.04;102001.97;4923356;29;20043;-71
2023/03/27 07:27:38;;;;;;;6.32;2.20;;;;;;;3.54;93.57;102005.97;4928182;29;20032;-71
2023/03/27 07:30:06;;;;;;;6.50;2.33;;;;;;;3.64;93.37;102011.00;4912215;29;21632;-72
2023/03/27 07:32:34;;;;;;;6.88;2.08;;;;;;;3.69;93.67;102006.16;4929068;29;20040;-71
2023/03/27 07:35:00;;;;;;;8.27;2.33;;;;;;;3.72;93.17;102010.63;4910053;29;20150;-71
2023/03/27 07:37:26;;;;;;;5.68;2.33;;;;;;;3.74;92.90;102006.50;4919878;29;20068;-71
2023/03/27 07:39:51;;;;;;;6.03;2.22;;;;;;;3.78;91.96;102006.81;4921780;29;20103;-72
2023/03/27 07:42:16;;;;;;;6.20;2.45;;;;;;;3.79;91.56;102010.28;4919360;29;20067;-72
2023/03/27 07:44:42;;;;;;;8.23;2.50;;;;;;;3.82;91.13;102013.06;4914421;29;20056;-71
2023/03/27 07:47:07;;;;;;;6.57;2.88;;;;;;;3.95;92.20;102019.97;4913208;29;20280;-71
2023/03/27 07:49:32;;;;;;;7.72;2.47;;;;;;;4.08;90.72;102016.56;4910724;29;20095;-71
2023/03/27 07:51:59;;;;;;;8.85;2.45;;;;;;;4.23;91.92;102016.72;4926204;29;20479;-71
2023/03/27 07:54:25;;;;;;;7.10;2.45;;;;;;;4.39;92.63;102031.53;4908352;29;20034;-72
2023/03/27 07:56:51;;;;;;;6.40;2.33;;;;;;;4.48;89.76;102033.06;4922429;29;20394;-71
2023/03/27 07:59:19;;;;;;;7.53;2.30;;;;;;;4.62;89.88;102025.34;4917390;29;20024;-72
2023/03/27 08:01:44;;;;;;;8.15;2.63;;;;;;;4.77;87.87;102028.97;4924798;29;20064;-72
2023/03/27 08:04:10;;;;;;;7.05;2.72;;;;;;;4.96;90.52;102040.50;4921155;29;20116;-72
2023/03/27 08:06:36;;;;;;;9.38;2.45;;;;;;;5.12;87.83;102030.38;4914839;29;20734;-71
2023/03/27 08:09:01;;;;;;;5.50;1.90;;;;;;;5.25;86.90;102033.78;4896446;29;20028;-72
2023/03/27 08:11:27;;;;;;;7.30;2.05;;;;;;;5.38;87.99;102031.16;4909469;29;20114;-70
2023/03/27 08:13:52;;;;;;;6.43;1.98;;;;;;;5.51;87.27;102040.59;4922834;29;20116;-71
2023/03/27 08:16:18;;;;;;;7.38;1.88;;;;;;;5.67;86.61;102040.75;4920190;29;20394;-71
2023/03/27 08:18:45;;;;;;;6.82;1.90;;;;;;;5.80;84.74;102042.44;4927269;29;20060;-71
2023/03/27 08:21:11;;;;;;;6.35;1.70;;;;;;;5.91;84.76;102040.53;4932467;29;20031;-71
2023/03/27 08:23:38;;;;;;;7.22;1.90;;;;;;;5.96;83.29;102045.97;4917110;29;20115;-71
2023/03/27 08:26:04;;;;;;;7.25;2.10;;;;;;;5.90;83.44;102054.25;4922150;29;20039;-71
2023/03/27 08:28:31;;;;;;;5.45;1.80;;;;;;;5.89;83.40;102055.03;4920457;29;20110;-71
2023/03/27 08:30:58;;;;;;;5.20;1.60;;;;;;;6.03;86.38;102055.94;4928867;29;20093;-71
2023/03/27 08:33:26;;;;;;;7.68;1.73;;;;;;;6.24;85.98;102061.50;4933967;29;20039;-71
2023/03/27 08:35:53;;;;;;;6.20;1.60;;;;;;;6.28;83.37;102058.31;4934287;29;20031;-71
2023/03/27 08:38:28;;;;;;;5.53;1.50;;;;;;;6.24;82.21;102061.50;5099215;27;20412;-66
2023/03/27 08:40:57;;;;;;;6.28;1.50;;;;;;;6.14;79.29;102059.16;5096050;28;20110;-65
2023/03/27 08:43:27;;;;;;;5.72;1.75;;;;;;;6.04;83.76;102063.78;5106143;28;20069;-65
2023/03/27 08:45:59;;;;;;;3.53;1.30;;;;;;;5.95;80.80;102068.34;5097917;28;20020;-65
2023/03/27 08:48:47;;;;;;;4.57;1.20;;;;;;;5.91;84.75;102066.38;5104309;28;20516;-65
2023/03/27 08:51:27;;;;;;;7.78;1.40;;;;;;;6.12;85.98;102071.13;5104094;28;20028;-65
2023/03/27 08:54:03;;;;;;;6.85;1.33;;;;;;;6.15;80.84;102073.91;5108062;28;20023;-65
2023/03/27 08:56:28;;;;;;;5.88;1.30;;;;;;;6.03;80.66;102074.03;5107964;28;20108;-65
2023/03/27 08:58:54;;;;;;;6.30;1.02;;;;;;;5.93;81.22;102088.06;5107900;28;20858;-65
2023/03/27 09:01:45;;;;;;;6.35;1.50;;;;;;;5.89;81.72;102088.66;5107720;28;20032;-65
2023/03/27 09:04:33;;;;;;;7.18;1.23;;;;;;;6.11;83.10;102084.84;5098289;28;20031;-65
2023/03/27 09:07:26;;;;;;;7.43;1.45;;;;;;;6.39;82.98;102088.34;5097239;28;20028;-66
2023/03/27 09:10:19;;;;;;;4.93;1.13;;;;;;;6.73;81.52;102095.53;5107572;28;20506;-65
2023/03/27 09:12:58;;;;;;;6.80;1.10;;;;;;;7.03;80.60;102095.56;5107618;28;20520;-66
2023/03/27 09:15:28;;;;;;;5.78;1.20;;;;;;;7.30;79.99;102093.66;5105620;28;20112;-66
2023/03/27 09:18:06;;;;;;;6.78;0.93;;;;;;;7.55;75.94;102092.44;5107409;28;20058;-66
2023/03/27 09:20:41;;;;;;;4.43;1.00;;;;;;;7.89;78.92;102101.22;5087142;28;20111;-65
2023/03/27 09:23:17;;;;;;;5.00;1.13;;;;;;;8.11;78.13;102095.47;5087085;28;20031;-65
2023/03/27 09:25:48;;;;;;;4.03;1.00;;;;;;;8.19;73.32;102113.25;5086365;28;20032;-65
2023/03/27 09:28:25;;;;;;;3.92;1.10;;;;;;;8.25;76.00;102119.59;5083993;28;20031;-65
2023/03/27 09:30:51;;;;;;;3.10;1.00;;;;;;;7.85;73.73;102133.91;5085393;28;20052;-65
2023/03/27 09:33:18;;;;;;;4.60;1.10;;;;;;;7.36;78.90;102149.25;5085395;28;20099;-65
2023/03/27 09:35:44;;;;;;;3.47;0.80;;;;;;;6.88;77.20;102156.81;5086851;28;20039;-65
2023/03/27 09:38:26;;;;;;;3.15;0.77;;;;;;;6.40;81.01;102162.63;5086535;28;20040;-65
2023/03/27 09:41:21;;;;;;;2.45;0.70;;;;;;;6.22;81.96;102148.53;5071084;28;20520;-65
2023/03/27 09:44:15;;;;;;;3.42;0.80;;;;;;;6.16;81.76;102148.16;5082754;28;20102;-66
2023/03/27 09:46:48;;;;;;;3.38;0.80;;;;;;;6.07;83.82;102153.66;5074741;28;20063;-65
2023/03/27 09:49:16;;;;;;;2.22;0.80;;;;;;;6.13;83.98;102153.16;5063583;28;20035;-65
2023/03/27 09:51:46;;;;;;;3.50;0.85;;;;;;;6.22;83.69;102151.13;5073485;28;20086;-67
2023/03/27 09:54:15;;;;;;;3.33;0.80;;;;;;;6.25;81.13;102159.06;5072773;28;20047;-68
2023/03/27 09:56:45;;;;;;;3.42;0.90;;;;;;;6.26;82.66;102159.16;5071818;28;20105;-68
2023/03/27 09:59:19;;;;;;;;;;;;;;;6.33;83.42;102159.53;5073182;28;20358;-68
2023/03/27 10:01:49;;;;;;;3.55;0.88;;;;;;;6.24;81.53;102159.88;5072757;28;19953;-68
2023/03/27 10:04:18;;;;;;;3.92;0.73;;;;;;;6.20;82.05;102168.22;5067774;28;20043;-68
2023/03/27 10:06:55;;;;;;;4.57;0.90;;;;;;;6.17;80.87;102162.88;5065501;28;20009;-68
2023/03/27 10:09:26;;;;;;;5.85;1.08;;;;;;;6.39;83.27;102167.72;5073044;28;20033;-68
2023/03/27 10:12:04;;;;;;;5.90;1.08;;;;;;;6.70;83.24;102157.50;5072723;28;20170;-68
2023/03/27 10:14:33;;;;;;;5.10;0.98;;;;;;;6.89;83.12;102167.28;5072750;28;20021;-68
2023/03/27 10:17:00;;;;;;;6.50;1.00;;;;;;;7.10;79.08;102169.38;5069279;28;20023;-68
2023/03/27 10:19:30;;;;;;;3.50;1.05;;;;;;;7.32;82.30;102164.63;5072563;28;20024;-68
2023/03/27 10:21:59;;;;;;;7.05;1.45;;;;;;;7.65;82.46;102159.59;5072476;28;20027;-68
2023/03/27 10:24:32;;;;;;;5.93;1.00;;;;;;;7.98;78.95;102154.53;5072617;28;20031;-68
2023/03/27 10:27:00;;;;;;;6.80;1.27;;;;;;;8.02;76.94;102158.16;5063565;28;20044;-69
2023/03/27 10:29:29;;;;;;;7.30;1.20;;;;;;;8.08;80.51;102157.63;5069164;28;20032;-68
2023/03/27 10:31:56;;;;;;;;;;;;;;;8.24;79.42;102159.34;5072791;28;20032;-69
2023/03/27 10:34:31;;;;;;;4.57;1.40;;;;;;;8.26;80.23;102156.03;5072356;28;19992;-68
2023/03/27 10:37:00;;;;;;;6.20;1.35;;;;;;;8.41;77.14;102161.16;5072153;28;20087;-68
2023/03/27 10:39:28;;;;;;;6.18;1.63;;;;;;;8.63;77.77;102150.25;5071008;28;20028;-68
2023/03/27 10:41:53;;;;;;;4.53;1.52;;;;;;;8.81;77.46;102145.09;5072172;28;20087;-68
2023/03/27 10:44:24;;;;;;;4.47;1.35;;;;;;;9.00;75.29;102146.94;5070703;28;20041;-68
2023/03/27 10:46:51;;;;;;;6.38;1.73;;;;;;;9.17;71.12;102145.19;5071775;28;20120;-68
2023/03/27 10:49:40;;;;;;;7.10;1.70;;;;;;;9.38;73.41;102152.28;5061167;28;20035;-69
2023/03/27 10:52:17;;;;;;;6.20;1.20;;;;;;;9.33;69.68;102159.84;5072027;28;20490;-69
2023/03/27 10:54:50;;;;;;;6.68;1.77;;;;;;;9.33;72.82;102182.38;5071950;28;20066;-69
2023/03/27 10:57:38;;;;;;;4.18;1.10;;;;;;;9.09;68.60;102188.09;5071639;28;20052;-68
2023/03/27 11:00:21;;;;;;;3.58;1.00;;;;;;;8.19;71.13;102209.31;5069517;28;20500;-68
2023/03/27 11:03:04;;;;;;;4.47;1.00;;;;;;;7.56;75.32;102226.53;5068255;28;20024;-67
2023/03/27 11:05:37;;;;;;;4.70;1.10;;;;;;;7.11;76.58;102242.03;5071570;28;20386;-68
2023/03/27 11:08:22;;;;;;;4.13;1.10;;;;;;;6.60;76.93;102240.63;5070476;28;20032;-67
2023/03/27 11:10:49;;;;;;;3.75;1.10;;;;;;;6.08;79.01;102245.97;5071800;28;20081;-68
2023/03/27 11:13:22;;;;;;;4.60;1.17;;;;;;;5.71;81.82;102247.03;5069615;28;20031;-68
2023/03/27 11:16:03;;;;;;;4.95;1.08;;;;;;;5.47;82.56;102243.72;5058534;28;20028;-65
2023/03/27 11:18:36;;;;;;;4.78;1.10;;;;;;;5.34;84.42;102242.00;5046459;28;20060;-65
2023/03/27 11:21:11;;;;;;;4.28;1.08;;;;;;;5.34;85.74;102234.22;5056486;28;20025;-65
2023/03/27 11:23:38;;;;;;;3.72;1.30;;;;;;;5.42;85.36;102223.50;5059496;28;20029;-65
2023/03/27 11:26:05;;;;;;;2.88;1.00;;;;;;;5.52;86.51;102228.53;5051508;28;20025;-66
2023/03/27 11:28:42;;;;;;;5.45;1.15;;;;;;;5.79;88.47;102229.44;5049616;28;20108;-65
2023/03/27 11:31:38;;;;;;;3.28;1.10;;;;;;;6.08;88.68;102233.03;5048232;28;20024;-65
2023/03/27 11:34:13;;;;;;;6.40;1.65;;;;;;;6.40;90.17;102231.59;5046835;28;20120;-65
2023/03/27 11:36:47;;;;;;;4.97;1.30;;;;;;;6.75;90.08;102233.81;5046741;28;20052;-65
2023/03/27 11:39:20;;;;;;;5.28;1.33;;;;;;;7.06;87.73;102219.25;5047889;28;20025;-65
2023/03/27 11:41:52;;;;;;;3.60;1.10;;;;;;;7.32;85.29;102228.56;5065244;28;20082;-65
2023/03/27 11:44:17;;;;;;;5.82;1.48;;;;;;;7.48;84.81;102228.66;5053839;28;20471;-65
2023/03/27 11:46:59;;;;;;;4.35;1.00;;;;;;;7.61;82.90;102229.38;5067770;28;20078;-65
2023/03/27 11:49:35;;;;;;;6.43;1.45;;;;;;;7.82;83.97;102221.94;5056074;28;20024;-65